Time;durP1;ratioP1;P1;durP2;ratioP2;P2;SDS_P1;SDS_P2;PMS_P1;PMS_P2;Temp;Humidity;BMP_temperature;BMP_pressure;BME280_temperature;BME280_humidity;BME280_pressure;Samples;Min_cycle;Max_cycle;Signal;HPM_P1;HPM_P2
2022/07/11 00:02:24;;;;;;;5.18;1.55;;;16.00;99.90;;;;;;5085257;28;20423;-65
2022/07/11 00:04:50;;;;;;;1.33;1.02;;;16.00;99.90;;;;;;5085466;28;20115;-65
2022/07/11 00:07:16;;;;;;;1.35;0.85;;;15.90;99.90;;;;;;5088294;28;20173;-65
2022/07/11 00:09:41;;;;;;;1.55;1.08;;;16.00;99.90;;;;;;5088932;28;20055;-64
2022/07/11 00:12:08;;;;;;;2.15;1.27;;;15.90;99.90;;;;;;5088824;28;20051;-65
2022/07/11 00:14:35;;;;;;;2.08;1.05;;;15.90;99.90;;;;;;5089287;28;20048;-65
2022/07/11 00:17:01;;;;;;;1.60;1.20;;;15.90;99.90;;;;;;5088411;28;20048;-65
2022/07/11 00:19:26;;;;;;;2.30;1.10;;;15.90;99.90;;;;;;5089445;28;20044;-65
2022/07/11 00:21:52;;;;;;;1.35;0.80;;;15.90;99.90;;;;;;5087264;28;20048;-65
2022/07/11 00:24:19;;;;;;;1.20;1.10;;;15.90;99.90;;;;;;5088890;28;20073;-65
2022/07/11 00:26:46;;;;;;;1.27;1.17;;;15.90;99.90;;;;;;5089554;28;20055;-65
2022/07/11 00:29:13;;;;;;;2.90;0.95;;;15.90;99.90;;;;;;5088958;28;20505;-65
2022/07/11 00:31:38;;;;;;;2.30;1.42;;;15.90;99.90;;;;;;5088037;28;20052;-65
2022/07/11 00:34:04;;;;;;;2.85;1.60;;;15.90;99.90;;;;;;5088145;28;20563;-65
2022/07/11 00:36:31;;;;;;;1.27;1.17;;;16.00;99.90;;;;;;5088628;28;20538;-65
2022/07/11 00:38:57;;;;;;;4.50;1.40;;;15.90;99.90;;;;;;5087825;28;20047;-64
2022/07/11 00:41:23;;;;;;;3.13;1.42;;;15.80;99.90;;;;;;5088524;28;20036;-65
2022/07/11 00:43:54;;;;;;;2.05;1.23;;;15.80;99.90;;;;;;5088847;28;20048;-65
2022/07/11 00:46:20;;;;;;;2.00;1.23;;;15.80;99.90;;;;;;5087833;28;20437;-65
2022/07/11 00:48:45;;;;;;;4.38;1.20;;;15.80;99.90;;;;;;5088789;28;20051;-65
2022/07/11 00:51:12;;;;;;;1.20;1.08;;;15.80;99.90;;;;;;5088287;28;20055;-65
2022/07/11 00:53:39;;;;;;;1.13;1.02;;;15.80;99.90;;;;;;5087347;28;20039;-65
2022/07/11 00:56:06;;;;;;;1.85;1.40;;;15.80;99.90;;;;;;5088142;28;20093;-64
2022/07/11 00:58:32;;;;;;;2.40;1.67;;;15.80;99.90;;;;;;5088203;28;20040;-65
2022/07/11 01:00:58;;;;;;;2.45;1.40;;;15.80;99.90;;;;;;5087018;28;20133;-65
2022/07/11 01:03:24;;;;;;;2.22;1.15;;;16.30;99.90;;;;;;5087897;28;20113;-65
2022/07/11 01:05:50;;;;;;;4.38;1.92;;;15.80;99.90;;;;;;5087985;28;20606;-65
2022/07/11 01:08:15;;;;;;;2.97;1.80;;;15.80;99.90;;;;;;5087893;28;20135;-65
2022/07/11 01:10:41;;;;;;;4.30;1.65;;;15.80;99.90;;;;;;5088364;28;20048;-65
2022/07/11 01:13:07;;;;;;;4.38;1.77;;;15.80;99.90;;;;;;5086939;28;20043;-65
2022/07/11 01:15:35;;;;;;;4.43;1.67;;;15.80;99.90;;;;;;5087419;28;20437;-65
2022/07/11 01:18:01;;;;;;;4.05;1.85;;;15.90;99.90;;;;;;5087345;28;20055;-65
2022/07/11 01:20:27;;;;;;;3.17;1.65;;;15.80;99.90;;;;;;5085794;28;20040;-65
2022/07/11 01:22:56;;;;;;;2.17;1.60;;;15.80;99.90;;;;;;5087615;28;20101;-65
2022/07/11 01:25:31;;;;;;;1.98;1.77;;;15.80;99.90;;;;;;5087577;28;20040;-65
2022/07/11 01:27:57;;;;;;;2.05;1.85;;;15.80;99.90;;;;;;5086781;28;20043;-65
2022/07/11 01:30:24;;;;;;;2.20;1.85;;;15.80;99.90;;;;;;5087286;28;20479;-65
2022/07/11 01:32:53;;;;;;;2.65;2.05;;;15.80;99.90;;;;;;5087683;28;20040;-65
2022/07/11 01:35:20;;;;;;;3.15;2.15;;;15.80;99.90;;;;;;5087479;28;20036;-65
2022/07/11 01:37:46;;;;;;;2.72;1.67;;;15.80;99.90;;;;;;5086289;28;20137;-65
2022/07/11 01:40:12;;;;;;;1.80;1.70;;;15.80;99.90;;;;;;5086610;28;20048;-65
2022/07/11 01:42:37;;;;;;;1.70;1.60;;;15.80;99.90;;;;;;5086670;28;20040;-65
2022/07/11 01:45:03;;;;;;;4.00;2.13;;;15.80;99.90;;;;;;5086769;28;20035;-65
2022/07/11 01:47:29;;;;;;;2.42;1.80;;;15.80;99.90;;;;;;5087319;28;20036;-65
2022/07/11 01:49:55;;;;;;;1.55;1.40;;;15.70;99.90;;;;;;5086234;28;20036;-65
2022/07/11 01:52:21;;;;;;;1.95;1.77;;;15.90;99.90;;;;;;5086115;28;20048;-65
2022/07/11 01:54:47;;;;;;;2.10;1.80;;;15.70;99.90;;;;;;5087485;28;20445;-65
2022/07/11 01:57:13;;;;;;;3.83;1.77;;;15.80;99.90;;;;;;5086544;28;20119;-65
2022/07/11 01:59:39;;;;;;;2.35;1.92;;;15.70;99.90;;;;;;5086974;28;20441;-65
2022/07/11 02:02:05;;;;;;;5.55;2.00;;;15.80;99.90;;;;;;5086449;28;20058;-65
2022/07/11 02:04:31;;;;;;;3.97;2.13;;;15.80;99.90;;;;;;5086301;28;20131;-65
2022/07/11 02:06:56;;;;;;;5.93;2.38;;;15.80;99.90;;;;;;5086582;28;20059;-64
2022/07/11 02:09:22;;;;;;;4.07;2.05;;;15.80;99.90;;;;;;5085842;28;20287;-65
2022/07/11 02:11:48;;;;;;;5.68;2.13;;;15.80;99.90;;;;;;5087159;28;20074;-65
2022/07/11 02:14:13;;;;;;;3.63;1.98;;;15.70;99.90;;;;;;5086599;28;20040;-64
2022/07/11 02:16:40;;;;;;;2.53;2.33;;;15.80;99.90;;;;;;5085892;28;20044;-65
2022/07/11 02:19:06;;;;;;;3.72;2.28;;;15.80;99.90;;;;;;5086362;28;20048;-65
2022/07/11 02:21:32;;;;;;;3.85;2.40;;;15.70;99.90;;;;;;5086450;28;20059;-65
2022/07/11 02:23:59;;;;;;;2.92;1.95;;;15.70;99.90;;;;;;5084751;28;20411;-65
2022/07/11 02:26:24;;;;;;;4.60;1.95;;;15.70;99.90;;;;;;5085835;28;20406;-65
2022/07/11 02:28:50;;;;;;;5.25;1.95;;;15.80;99.90;;;;;;5084962;28;20040;-65
2022/07/11 02:31:16;;;;;;;3.03;1.95;;;15.70;99.90;;;;;;5086246;28;20058;-64
2022/07/11 02:33:42;;;;;;;2.13;1.65;;;15.70;99.90;;;;;;5086528;28;20415;-65
2022/07/11 02:36:08;;;;;;;3.10;1.73;;;15.70;99.90;;;;;;5086073;28;20051;-65
2022/07/11 02:38:34;;;;;;;2.00;1.40;;;15.80;99.90;;;;;;5085637;28;20406;-65
2022/07/11 02:41:00;;;;;;;2.40;1.40;;;15.70;99.90;;;;;;5086315;28;20036;-65
2022/07/11 02:43:26;;;;;;;1.55;1.45;;;15.70;99.90;;;;;;5086232;28;20070;-64
2022/07/11 02:45:52;;;;;;;3.55;1.50;;;15.80;99.90;;;;;;5085320;28;20047;-65
2022/07/11 02:48:17;;;;;;;1.52;1.42;;;15.70;99.90;;;;;;5086739;28;20036;-65
2022/07/11 02:50:43;;;;;;;3.20;1.30;;;15.70;99.90;;;;;;5086661;28;20040;-65
2022/07/11 02:53:09;;;;;;;3.35;1.38;;;15.80;99.90;;;;;;5085188;28;20300;-64
2022/07/11 02:55:34;;;;;;;3.88;1.52;;;15.70;99.90;;;;;;5084824;28;20040;-65
2022/07/11 02:58:00;;;;;;;4.43;1.60;;;15.70;99.90;;;;;;5084485;28;20101;-65
2022/07/11 03:00:26;;;;;;;2.25;1.33;;;15.90;99.90;;;;;;5085123;28;20486;-65
2022/07/11 03:02:51;;;;;;;3.88;1.98;;;15.80;99.90;;;;;;5086111;28;20055;-65
2022/07/11 03:05:18;;;;;;;1.08;0.88;;;15.70;99.90;;;;;;5086798;28;20044;-65
2022/07/11 03:07:43;;;;;;;2.50;1.58;;;15.80;99.90;;;;;;5085326;28;20131;-64
2022/07/11 03:10:09;;;;;;;2.30;2.10;;;15.80;99.90;;;;;;5085567;28;20101;-64
2022/07/11 03:12:36;;;;;;;1.60;1.38;;;15.80;99.90;;;;;;5085308;28;20474;-65
2022/07/11 03:15:01;;;;;;;3.63;1.10;;;15.80;99.90;;;;;;5085483;28;20494;-65
2022/07/11 03:17:27;;;;;;;1.88;1.10;;;15.80;99.90;;;;;;5085926;28;20055;-65
2022/07/11 03:19:53;;;;;;;5.72;1.25;;;15.80;99.90;;;;;;5084829;28;20064;-65
2022/07/11 03:22:19;;;;;;;3.22;1.15;;;15.80;99.90;;;;;;5085151;28;20043;-65
2022/07/11 03:24:45;;;;;;;3.35;1.25;;;15.80;99.90;;;;;;5085411;28;20399;-65
2022/07/11 03:27:11;;;;;;;2.53;0.93;;;16.90;99.90;;;;;;5083630;28;20051;-65
2022/07/11 03:29:37;;;;;;;2.90;1.08;;;15.80;99.90;;;;;;5086038;28;20043;-65
2022/07/11 03:32:03;;;;;;;0.77;0.77;;;15.80;99.90;;;;;;5085587;28;20036;-65
2022/07/11 03:34:28;;;;;;;3.75;1.05;;;15.70;99.90;;;;;;5085144;28;20035;-64
2022/07/11 03:36:54;;;;;;;0.98;0.80;;;15.70;99.90;;;;;;5085187;28;20036;-65
2022/07/11 03:39:23;;;;;;;2.80;0.85;;;15.70;99.90;;;;;;5088265;28;20048;-65
2022/07/11 03:41:49;;;;;;;0.95;0.50;;;15.90;99.90;;;;;;5088029;28;20108;-65
2022/07/11 03:44:15;;;;;;;1.10;0.70;;;16.30;99.90;;;;;;5088886;28;20040;-65
2022/07/11 03:46:40;;;;;;;1.15;0.77;;;15.80;99.90;;;;;;5089706;28;20100;-65
2022/07/11 03:49:06;;;;;;;1.27;0.55;;;15.80;99.90;;;;;;5088359;28;20787;-65
2022/07/11 03:51:31;;;;;;;1.63;0.70;;;15.70;99.90;;;;;;5088090;28;20048;-65
2022/07/11 03:53:57;;;;;;;2.35;0.95;;;15.70;99.90;;;;;;5089157;28;20032;-65
2022/07/11 03:56:23;;;;;;;1.70;0.90;;;15.70;99.90;;;;;;5088668;28;20121;-64
2022/07/11 03:58:49;;;;;;;1.25;0.60;;;15.70;99.90;;;;;;5089665;28;20522;-64
2022/07/11 04:01:15;;;;;;;1.13;0.60;;;15.70;99.90;;;;;;5089468;28;20059;-65
2022/07/11 04:03:41;;;;;;;3.90;0.90;;;15.70;99.90;;;;;;5088639;28;20441;-65
2022/07/11 04:06:07;;;;;;;1.70;0.90;;;15.70;99.90;;;;;;5087614;28;20391;-65
2022/07/11 04:08:33;;;;;;;1.30;0.80;;;15.80;99.90;;;;;;5089113;28;20047;-64
2022/07/11 04:10:58;;;;;;;1.30;0.90;;;15.70;99.90;;;;;;5088106;28;20050;-65
2022/07/11 04:13:24;;;;;;;1.10;0.93;;;15.70;99.90;;;;;;5087921;28;20123;-64
2022/07/11 04:15:50;;;;;;;4.00;1.05;;;15.80;99.90;;;;;;5088813;28;20503;-65
2022/07/11 04:18:15;;;;;;;1.98;1.08;;;15.80;99.90;;;;;;5088968;28;20048;-65
2022/07/11 04:20:41;;;;;;;1.63;0.98;;;15.70;99.90;;;;;;5088851;28;20082;-65
2022/07/11 04:23:07;;;;;;;1.98;0.73;;;15.70;99.90;;;;;;5086519;28;20514;-65
2022/07/11 04:25:34;;;;;;;1.42;0.70;;;15.70;99.90;;;;;;5088940;28;20097;-65
2022/07/11 04:28:00;;;;;;;3.03;0.80;;;15.70;99.90;;;;;;5088944;28;20044;-65
2022/07/11 04:30:25;;;;;;;4.20;1.33;;;15.70;99.90;;;;;;5088125;28;20138;-65
2022/07/11 04:32:51;;;;;;;6.57;1.17;;;15.90;99.90;;;;;;5088429;28;20048;-65
2022/07/11 04:35:17;;;;;;;4.15;1.13;;;15.70;99.90;;;;;;5087968;28;20089;-65
2022/07/11 04:37:43;;;;;;;0.98;0.80;;;15.80;99.90;;;;;;5087666;28;20118;-65
2022/07/11 04:40:09;;;;;;;0.60;0.60;;;15.80;99.90;;;;;;5087960;28;20818;-65
2022/07/11 04:42:35;;;;;;;2.45;1.17;;;15.80;99.90;;;;;;5088649;28;20040;-65
2022/07/11 04:45:01;;;;;;;1.80;1.33;;;15.70;99.90;;;;;;5087444;28;20442;-65
2022/07/11 04:47:26;;;;;;;1.58;1.08;;;15.70;99.90;;;;;;5087140;28;20052;-64
2022/07/11 04:49:52;;;;;;;1.80;0.82;;;15.80;99.90;;;;;;5086057;28;20072;-65
2022/07/11 04:52:18;;;;;;;2.85;0.80;;;15.80;99.90;;;;;;5086451;28;20048;-65
2022/07/11 04:54:43;;;;;;;2.25;0.60;;;15.80;99.90;;;;;;5088493;28;20036;-64
2022/07/11 04:57:09;;;;;;;2.35;0.52;;;15.80;99.90;;;;;;5087923;28;20194;-65
2022/07/11 04:59:35;;;;;;;1.00;0.47;;;15.80;99.90;;;;;;5086143;28;20036;-64
2022/07/11 05:02:01;;;;;;;2.08;0.85;;;15.90;99.90;;;;;;5087781;28;20067;-65
2022/07/11 05:04:27;;;;;;;2.85;0.88;;;15.80;99.90;;;;;;5088161;28;20040;-65
2022/07/11 05:06:53;;;;;;;3.25;1.00;;;15.90;99.90;;;;;;5087015;28;20497;-65
2022/07/11 05:09:18;;;;;;;3.47;1.15;;;15.90;99.90;;;;;;5088679;28;20040;-65
2022/07/11 05:11:44;;;;;;;1.08;0.63;;;15.90;99.90;;;;;;5088083;28;20067;-65
2022/07/11 05:14:10;;;;;;;2.65;0.88;;;15.90;99.90;;;;;;5086979;28;20294;-65
2022/07/11 05:16:35;;;;;;;0.70;0.68;;;15.90;99.90;;;;;;5087716;28;20040;-65
2022/07/11 05:19:01;;;;;;;3.25;1.20;;;16.10;99.90;;;;;;5087509;28;20063;-65
2022/07/11 05:21:27;;;;;;;3.38;0.88;;;15.90;99.90;;;;;;5086890;28;20040;-65
2022/07/11 05:23:52;;;;;;;1.38;0.65;;;16.30;99.90;;;;;;5087493;28;20509;-65
2022/07/11 05:26:18;;;;;;;3.17;0.50;;;16.00;99.90;;;;;;5086368;28;20174;-64
2022/07/11 05:28:44;;;;;;;1.33;0.50;;;16.00;99.90;;;;;;5087433;28;20491;-65
2022/07/11 05:31:10;;;;;;;1.40;0.40;;;16.10;99.90;;;;;;5087222;28;20202;-65
2022/07/11 05:33:36;;;;;;;0.82;0.32;;;16.00;99.90;;;;;;5086951;28;20509;-65
2022/07/11 05:36:02;;;;;;;0.35;0.25;;;16.00;99.90;;;;;;5086985;28;20128;-65
2022/07/11 05:38:27;;;;;;;0.65;0.60;;;16.00;99.90;;;;;;5087723;28;20491;-65
2022/07/11 05:40:53;;;;;;;3.13;0.50;;;16.00;99.90;;;;;;5086303;28;20039;-65
2022/07/11 05:43:19;;;;;;;0.93;0.50;;;16.00;99.90;;;;;;5087862;28;20075;-64
2022/07/11 05:45:44;;;;;;;1.17;0.43;;;16.00;99.90;;;;;;5086161;28;20496;-65
2022/07/11 05:48:10;;;;;;;1.48;0.80;;;16.00;99.90;;;;;;5086361;28;20064;-65
2022/07/11 05:50:35;;;;;;;1.10;0.88;;;16.00;99.90;;;;;;5087251;28;20040;-65
2022/07/11 05:53:02;;;;;;;1.15;0.93;;;16.00;99.90;;;;;;5086756;28;20544;-65
2022/07/11 05:55:28;;;;;;;2.20;0.95;;;16.10;99.90;;;;;;5086416;28;20062;-65
2022/07/11 05:57:54;;;;;;;1.92;0.60;;;16.10;99.90;;;;;;5086904;28;20204;-65
2022/07/11 06:00:22;;;;;;;1.20;0.80;;;16.10;99.90;;;;;;5086987;28;20574;-65
2022/07/11 06:02:49;;;;;;;1.38;0.55;;;16.20;99.90;;;;;;5085521;28;20044;-65
2022/07/11 06:05:15;;;;;;;3.83;0.90;;;16.20;99.90;;;;;;5087477;28;20040;-65
2022/07/11 06:10:25;;;;;;;0.95;0.57;;;16.20;99.90;;;;;;5085986;28;20119;-64
2022/07/11 06:12:50;;;;;;;0.68;0.45;;;16.30;99.90;;;;;;5086613;28;20048;-65
2022/07/11 06:15:16;;;;;;;2.00;0.50;;;16.30;99.90;;;;;;5087180;28;20392;-65
2022/07/11 06:17:45;;;;;;;1.95;0.30;;;16.30;99.90;;;;;;5084597;28;20165;-65
2022/07/11 06:20:11;;;;;;;1.38;0.47;;;16.30;99.90;;;;;;5068503;28;20050;-65
2022/07/11 06:22:37;;;;;;;1.77;0.35;;;16.40;99.90;;;;;;5085949;28;20072;-65
2022/07/11 06:25:03;;;;;;;0.95;0.43;;;16.30;99.90;;;;;;5086138;28;20071;-65
2022/07/11 06:27:29;;;;;;;0.63;0.40;;;16.30;99.90;;;;;;5086593;28;20036;-64
2022/07/11 06:29:54;;;;;;;0.80;0.40;;;16.30;99.90;;;;;;5085399;28;20548;-65
2022/07/11 06:32:20;;;;;;;1.38;0.30;;;16.30;99.90;;;;;;5086319;28;20051;-65
2022/07/11 06:34:45;;;;;;;0.95;0.30;;;16.40;99.90;;;;;;5086715;28;20048;-65
2022/07/11 06:37:11;;;;;;;1.77;0.55;;;16.30;99.90;;;;;;5085485;28;20090;-65
2022/07/11 06:39:37;;;;;;;0.30;0.30;;;16.40;99.90;;;;;;5086155;28;20033;-64
2022/07/11 06:42:02;;;;;;;1.00;0.70;;;16.40;99.90;;;;;;5084730;28;20070;-65
2022/07/11 06:44:28;;;;;;;1.05;0.60;;;16.40;99.90;;;;;;5085683;28;20116;-65
2022/07/11 06:46:54;;;;;;;3.53;0.63;;;16.40;99.90;;;;;;5086036;28;20114;-65
2022/07/11 06:49:20;;;;;;;2.03;0.80;;;16.40;99.90;;;;;;5086488;28;20555;-65
2022/07/11 06:51:45;;;;;;;0.77;0.70;;;16.40;99.90;;;;;;5085861;28;20055;-65
2022/07/11 06:54:11;;;;;;;4.55;1.00;;;16.50;99.90;;;;;;5086028;28;20040;-65
2022/07/11 06:56:37;;;;;;;3.03;0.93;;;16.50;99.90;;;;;;5086170;28;20161;-64
2022/07/11 06:59:02;;;;;;;1.70;0.70;;;16.40;99.90;;;;;;5084999;28;20044;-65
2022/07/11 07:01:28;;;;;;;1.55;0.73;;;16.50;99.90;;;;;;5085793;28;20055;-64
2022/07/11 07:03:53;;;;;;;0.68;0.68;;;16.50;99.90;;;;;;5085842;28;20490;-65
2022/07/11 07:06:20;;;;;;;1.27;0.70;;;16.50;99.90;;;;;;5085775;28;20445;-65
2022/07/11 07:08:45;;;;;;;2.08;0.73;;;15.50;99.90;;;;;;5086460;28;20047;-65
2022/07/11 07:11:11;;;;;;;0.43;0.40;;;16.60;99.90;;;;;;5085868;28;20071;-65
2022/07/11 07:13:37;;;;;;;1.73;0.70;;;16.60;99.90;;;;;;5087604;28;20058;-65
2022/07/11 07:16:04;;;;;;;4.05;0.55;;;16.70;99.90;;;;;;5089924;28;20078;-65
2022/07/11 07:18:30;;;;;;;1.13;0.60;;;16.80;99.90;;;;;;5090232;28;20056;-65
2022/07/11 07:20:55;;;;;;;1.33;0.70;;;16.80;99.90;;;;;;5088925;28;20070;-65
2022/07/11 07:23:21;;;;;;;2.88;0.70;;;16.90;99.90;;;;;;5090127;28;20139;-65
2022/07/11 07:25:47;;;;;;;1.38;0.60;;;17.00;99.90;;;;;;5089903;28;20048;-65
2022/07/11 07:28:12;;;;;;;0.80;0.60;;;17.10;99.90;;;;;;5089915;28;20062;-64
2022/07/11 07:30:38;;;;;;;0.80;0.75;;;17.10;99.90;;;;;;5089885;28;20047;-65
2022/07/11 07:33:04;;;;;;;2.03;0.73;;;17.20;99.90;;;;;;5089070;28;20047;-65
2022/07/11 07:35:29;;;;;;;2.80;0.77;;;17.30;99.90;;;;;;5089936;28;20376;-65
2022/07/11 07:37:55;;;;;;;0.22;0.20;;;17.50;99.90;;;;;;5089389;28;20509;-65
2022/07/11 07:40:21;;;;;;;1.05;0.20;;;17.20;99.90;;;;;;5089037;28;20089;-65
2022/07/11 07:42:47;;;;;;;0.40;0.10;;;17.20;99.90;;;;;;5090516;28;20040;-64
2022/07/11 07:45:13;;;;;;;0.60;0.25;;;17.30;99.90;;;;;;5071392;28;20051;-65
2022/07/11 07:47:39;;;;;;;1.08;0.43;;;17.20;99.90;;;;;;5088740;28;20084;-65
2022/07/11 07:50:05;;;;;;;3.33;0.22;;;17.30;99.90;;;;;;5089207;28;20414;-65
2022/07/11 07:52:32;;;;;;;0.65;0.10;;;17.20;99.90;;;;;;5089574;28;20052;-65
2022/07/11 07:54:58;;;;;;;0.90;0.20;;;17.30;99.90;;;;;;5088489;28;20638;-65
2022/07/11 07:57:24;;;;;;;0.45;0.20;;;17.20;99.90;;;;;;5089141;28;20043;-65
2022/07/11 07:59:50;;;;;;;0.10;0.10;;;17.20;99.90;;;;;;5089416;28;20038;-65
2022/07/11 08:02:15;;;;;;;0.03;0.03;;;17.30;99.90;;;;;;5087690;28;20063;-65
2022/07/11 08:04:41;;;;;;;0.65;0.20;;;17.30;99.90;;;;;;5089226;28;20062;-65
2022/07/11 08:07:07;;;;;;;2.05;0.40;;;17.40;99.90;;;;;;5089030;28;20075;-65
2022/07/11 08:09:32;;;;;;;0.20;0.10;;;17.50;99.90;;;;;;5086927;28;20086;-65
2022/07/11 08:11:58;;;;;;;0.35;0.13;;;17.60;99.90;;;;;;5087291;28;20123;-64
2022/07/11 08:14:24;;;;;;;0.55;0.40;;;17.80;99.90;;;;;;5088940;28;20051;-65
2022/07/11 08:16:50;;;;;;;0.13;0.03;;;17.80;99.90;;;;;;5088267;28;20042;-65
2022/07/11 08:19:17;;;;;;;1.98;0.30;;;18.00;99.90;;;;;;5088240;28;20036;-65
2022/07/11 08:21:42;;;;;;;0.10;0.10;;;18.00;99.90;;;;;;5087464;28;20048;-65
2022/07/11 08:24:08;;;;;;;3.60;0.43;;;17.90;99.90;;;;;;5087040;28;20041;-65
2022/07/11 08:26:34;;;;;;;0.30;0.10;;;17.90;99.90;;;;;;5088659;28;20402;-65
2022/07/11 08:29:02;;;;;;;0.28;0.20;;;17.90;99.90;;;;;;5088585;28;20044;-65
2022/07/11 08:31:27;;;;;;;1.95;0.20;;;17.90;99.90;;;;;;5088754;28;20040;-65
2022/07/11 08:33:53;;;;;;;0.35;0.10;;;17.80;99.90;;;;;;5088417;28;20046;-64
2022/07/11 08:36:19;;;;;;;0.30;0.20;;;17.80;99.90;;;;;;5088443;28;20040;-65
2022/07/11 08:38:48;;;;;;;0.13;0.13;;;17.70;99.90;;;;;;5089278;28;20048;-65
2022/07/11 08:41:14;;;;;;;0.10;0.10;;;17.70;99.90;;;;;;5088550;28;20040;-65
2022/07/11 08:43:42;;;;;;;0.25;0.10;;;17.70;99.90;;;;;;5087641;28;20233;-65
2022/07/11 08:46:09;;;;;;;0.22;0.22;;;17.60;99.90;;;;;;5088359;28;20101;-65
2022/07/11 08:48:39;;;;;;;0.30;0.22;;;17.70;99.90;;;;;;5088329;28;20040;-65
2022/07/11 08:51:06;;;;;;;0.38;0.10;;;17.80;99.90;;;;;;5087792;28;20127;-65
2022/07/11 08:53:32;;;;;;;0.32;0.20;;;17.90;99.90;;;;;;5088414;28;20054;-65
2022/07/11 08:56:00;;;;;;;0.40;0.10;;;18.00;99.90;;;;;;5088047;28;20096;-65
2022/07/11 08:58:26;;;;;;;0.10;0.10;;;18.00;99.90;;;;;;5087533;28;20071;-65
2022/07/11 09:00:51;;;;;;;0.20;0.10;;;18.00;99.90;;;;;;5087760;28;20097;-65
2022/07/11 09:03:18;;;;;;;0.55;0.20;;;18.00;99.90;;;;;;5087370;28;20069;-65
2022/07/11 09:05:44;;;;;;;7.75;0.40;;;18.00;99.90;;;;;;5086038;28;20052;-65
2022/07/11 09:08:11;;;;;;;0.20;0.20;;;18.00;99.90;;;;;;5087845;28;20890;-65
2022/07/11 09:10:40;;;;;;;1.25;0.28;;;17.90;99.90;;;;;;5088027;28;20044;-65
2022/07/11 09:13:08;;;;;;;0.10;0.10;;;18.10;99.90;;;;;;5086776;28;20348;-64
2022/07/11 09:15:39;;;;;;;0.10;0.10;;;17.90;99.90;;;;;;5087917;28;20123;-65
2022/07/11 09:18:23;;;;;;;1.10;0.20;;;18.10;99.90;;;;;;5086060;28;20559;-65
2022/07/11 09:26:39;;;;;;;0.57;0.20;;;18.30;99.90;;;;;;5085750;28;20052;-65
2022/07/11 09:29:08;;;;;;;0.03;0.03;;;18.20;99.90;;;;;;5087423;28;20089;-64
2022/07/11 09:31:35;;;;;;;0.00;0.00;;;18.30;99.90;;;;;;5087549;28;20384;-65
2022/07/11 09:34:08;;;;;;;1.55;0.38;;;18.30;99.90;;;;;;5085265;28;20577;-65
2022/07/11 09:36:49;;;;;;;0.90;0.20;;;18.40;99.90;;;;;;5087403;28;20040;-65
2022/07/11 09:39:18;;;;;;;0.20;0.10;;;18.50;99.90;;;;;;5087986;28;20108;-65
2022/07/11 09:41:46;;;;;;;0.10;0.10;;;18.40;99.90;;;;;;5086478;28;20078;-65
2022/07/11 09:44:28;;;;;;;0.45;0.10;;;18.50;99.90;;;;;;5087382;28;20052;-65
2022/07/11 09:46:56;;;;;;;0.10;0.10;;;18.50;99.90;;;;;;5086369;28;20412;-65
2022/07/11 09:49:39;;;;;;;1.40;0.05;;;18.50;99.90;;;;;;5087358;28;20070;-65
2022/07/11 09:52:31;;;;;;;0.15;0.10;;;18.50;99.90;;;;;;5086636;28;20499;-65
2022/07/11 09:55:01;;;;;;;0.00;0.00;;;18.40;99.90;;;;;;5082322;28;20052;-65
2022/07/11 09:57:35;;;;;;;3.80;0.25;;;18.30;99.90;;;;;;5085577;28;20486;-64
2022/07/11 10:00:04;;;;;;;0.75;0.17;;;18.30;99.90;;;;;;5086759;28;20131;-65
2022/07/11 10:02:30;;;;;;;1.02;0.15;;;18.30;99.90;;;;;;5086089;28;20511;-65
2022/07/11 10:04:59;;;;;;;0.57;0.20;;;18.30;99.90;;;;;;5086533;28;20056;-65
2022/07/11 10:07:25;;;;;;;1.40;0.20;;;18.30;99.90;;;;;;5087110;28;20047;-65
2022/07/11 10:09:50;;;;;;;0.10;0.10;;;18.30;99.90;;;;;;5084946;28;20370;-65
2022/07/11 10:12:17;;;;;;;0.35;0.30;;;18.30;99.90;;;;;;5086203;28;20521;-65
2022/07/11 10:14:44;;;;;;;0.20;0.10;;;18.30;99.90;;;;;;5086076;28;20044;-65
2022/07/11 10:17:25;;;;;;;0.85;0.13;;;18.20;99.90;;;;;;5086296;28;20447;-66
2022/07/11 10:20:09;;;;;;;3.20;0.20;;;18.20;99.90;;;;;;5086180;28;20406;-65
2022/07/11 10:22:44;;;;;;;1.35;0.40;;;18.20;99.90;;;;;;5086023;28;20123;-64
2022/07/11 10:25:28;;;;;;;0.52;0.30;;;18.10;99.90;;;;;;5085195;28;20302;-65
2022/07/11 10:28:00;;;;;;;0.40;0.15;;;18.20;99.90;;;;;;5086153;28;20055;-65
2022/07/11 10:30:45;;;;;;;0.60;0.30;;;18.10;99.90;;;;;;5085922;28;20051;-65
2022/07/11 10:33:11;;;;;;;1.02;0.30;;;18.20;99.90;;;;;;5086456;28;20123;-65
2022/07/11 10:35:42;;;;;;;0.17;0.10;;;18.20;99.90;;;;;;5086486;28;20169;-65
2022/07/11 10:38:08;;;;;;;0.10;0.10;;;18.30;99.90;;;;;;5086033;28;20469;-64
2022/07/11 10:40:45;;;;;;;2.28;0.25;;;18.30;99.90;;;;;;5086246;28;20077;-65
2022/07/11 10:43:32;;;;;;;0.10;0.10;;;18.40;99.90;;;;;;5085558;28;20048;-65
2022/07/11 10:46:03;;;;;;;0.52;0.10;;;18.50;99.90;;;;;;5085947;28;20039;-64
2022/07/11 10:48:31;;;;;;;0.30;0.10;;;18.50;99.90;;;;;;5085592;28;20124;-65
2022/07/11 10:51:01;;;;;;;0.30;0.10;;;18.50;99.90;;;;;;5085019;28;20556;-65
2022/07/11 10:53:32;;;;;;;0.45;0.20;;;18.60;99.90;;;;;;5086293;28;20048;-65
2022/07/11 10:56:26;;;;;;;0.10;0.10;;;18.60;99.90;;;;;;5085736;28;20043;-65
2022/07/11 10:59:16;;;;;;;0.08;0.08;;;18.70;99.90;;;;;;5085160;28;20108;-65
2022/07/11 11:02:01;;;;;;;0.10;0.10;;;18.70;99.90;;;;;;5084604;28;20611;-65
2022/07/11 11:04:45;;;;;;;0.10;0.10;;;18.70;99.90;;;;;;5085515;28;20252;-65
2022/07/11 11:07:30;;;;;;;0.52;0.30;;;18.70;99.90;;;;;;5085873;28;20048;-65
2022/07/11 11:09:57;;;;;;;0.20;0.20;;;18.80;99.90;;;;;;5085926;28;20048;-65
2022/07/11 11:13:00;;;;;;;0.15;0.10;;;18.90;99.90;;;;;;5085443;28;20047;-65
2022/07/11 11:15:32;;;;;;;1.13;0.30;;;18.90;99.90;;;;;;5085954;28;20047;-65
2022/07/11 11:18:18;;;;;;;0.25;0.20;;;18.90;99.90;;;;;;5084838;28;20075;-65
2022/07/11 11:20:43;;;;;;;0.63;0.30;;;18.80;99.90;;;;;;5085555;28;20060;-65
2022/07/11 11:23:10;;;;;;;0.20;0.20;;;18.80;99.90;;;;;;5085992;28;20319;-65
2022/07/11 11:25:35;;;;;;;2.25;0.40;;;18.80;99.90;;;;;;5083991;28;20048;-65
2022/07/11 11:28:04;;;;;;;0.13;0.13;;;18.80;99.90;;;;;;5085307;28;20419;-65
2022/07/11 11:30:31;;;;;;;2.15;0.17;;;18.80;99.90;;;;;;5085606;28;20089;-65
2022/07/11 11:32:57;;;;;;;0.52;0.30;;;18.80;99.90;;;;;;5085030;28;20123;-65
2022/07/11 11:35:23;;;;;;;2.63;0.30;;;18.80;99.90;;;;;;5085837;28;20115;-65
2022/07/11 11:37:51;;;;;;;1.48;0.52;;;18.80;99.90;;;;;;5086038;28;20073;-65
2022/07/11 11:40:17;;;;;;;0.82;0.20;;;18.80;99.90;;;;;;5085534;28;20058;-65
2022/07/11 11:42:43;;;;;;;0.75;0.30;;;18.80;99.90;;;;;;5085634;28;20056;-65
2022/07/11 11:45:11;;;;;;;0.32;0.20;;;18.80;99.90;;;;;;5085314;28;20044;-65
2022/07/11 11:47:48;;;;;;;1.17;0.20;;;18.80;99.90;;;;;;5085054;28;20048;-65
2022/07/11 11:50:14;;;;;;;0.75;0.28;;;18.80;99.90;;;;;;5084305;28;20437;-65
2022/07/11 11:52:39;;;;;;;0.30;0.15;;;18.90;99.90;;;;;;5085504;28;20318;-64
2022/07/11 11:55:09;;;;;;;0.10;0.10;;;19.00;99.90;;;;;;5084534;28;20313;-65
2022/07/11 11:57:35;;;;;;;0.00;0.00;;;19.00;99.90;;;;;;5085831;28;20097;-65
2022/07/11 12:00:00;;;;;;;1.77;0.20;;;19.00;99.90;;;;;;5087925;28;20040;-65
2022/07/11 12:02:28;;;;;;;0.10;0.10;;;19.10;99.90;;;;;;5088365;28;20098;-65
2022/07/11 12:04:54;;;;;;;2.95;0.30;;;19.10;99.90;;;;;;5089134;28;20044;-65
2022/07/11 12:07:28;;;;;;;0.47;0.20;;;19.10;99.90;;;;;;5088586;28;20036;-65
2022/07/11 12:09:55;;;;;;;0.98;0.20;;;19.10;99.90;;;;;;5089500;28;20091;-65
2022/07/11 12:15:27;;;;;;;0.73;0.20;;;19.10;99.90;;;;;;5089674;28;20055;-65
2022/07/11 12:17:59;;;;;;;0.43;0.10;;;19.20;99.90;;;;;;5089686;28;20058;-65
2022/07/11 12:20:42;;;;;;;0.20;0.10;;;19.30;99.90;;;;;;5088751;28;20453;-65
2022/07/11 12:23:10;;;;;;;1.33;0.20;;;19.30;99.90;;;;;;5088253;28;20052;-65
2022/07/11 12:25:37;;;;;;;0.10;0.03;;;19.30;99.90;;;;;;5089060;28;20170;-65
2022/07/11 12:28:03;;;;;;;0.43;0.20;;;19.30;99.90;;;;;;5088400;28;20250;-65
2022/07/11 12:30:29;;;;;;;1.45;0.20;;;19.30;99.90;;;;;;5086533;28;20059;-65
2022/07/11 12:33:12;;;;;;;0.30;0.10;;;19.30;99.90;;;;;;5087048;28;20040;-65
2022/07/11 12:36:02;;;;;;;0.20;0.13;;;19.30;99.90;;;;;;5088250;28;20394;-65
2022/07/11 12:38:55;;;;;;;0.80;0.20;;;19.40;99.90;;;;;;5087333;28;20491;-65
2022/07/11 12:41:21;;;;;;;0.10;0.10;;;19.30;99.90;;;;;;5088350;28;20498;-65
2022/07/11 12:46:38;;;;;;;0.10;0.10;;;19.50;99.90;;;;;;5088726;28;20123;-65
2022/07/11 12:49:05;;;;;;;0.47;0.30;;;19.40;99.90;;;;;;5086920;28;20089;-65
2022/07/11 12:51:37;;;;;;;0.20;0.15;;;19.30;99.90;;;;;;5087495;28;20044;-65
2022/07/11 12:54:08;;;;;;;1.77;0.50;;;19.40;99.90;;;;;;5087896;28;20403;-65
2022/07/11 12:56:34;;;;;;;0.20;0.20;;;19.30;99.90;;;;;;5087909;28;20043;-65
2022/07/11 12:59:04;;;;;;;0.20;0.17;;;19.30;99.90;;;;;;5088238;28;20460;-65
2022/07/11 13:01:33;;;;;;;0.95;0.35;;;19.40;99.90;;;;;;5086770;28;20491;-65
2022/07/11 13:03:59;;;;;;;1.02;0.35;;;19.50;99.90;;;;;;5087093;28;20052;-65
2022/07/11 13:09:12;;;;;;;0.20;0.10;;;19.70;99.90;;;;;;5088046;28;20253;-65